Spring Ranch, Nebraska
Current Conditions -  °F | °C
As of 6:53 AM on Saturday 25 Oct 2014 (Local Time) from KHSI Reporting Station
Clear Clear  
Wind Chill: 41°   Ceiling: Unl
Heat Index: 44°   Visibility: 8mi
Dew Point: 40°   Wind: 6mph
Humidity: 85%   Direction: 20°NNE
Pressure: 30.08"   Gusts: NA
Location:  40.387°N, 98.1945°W
Report Text: KHSI 251153Z AUTO 02005KT 8SM CLR 07/04 A3008 RMK AO2 SLP186 T00670044 10106 20056 53012 $
Loading
Personal Weather Stations






























Interactive Weather Map
Tropical Storm Tracking
New forecast layout! Learn more

10-Day Weather Forecast

Advertisements
Track Severe Weather on mobile